Terminal Aerodrome Forecast
Issued by NWS Wakefield, VA

Home | Current Version | Previous Version | Text Only | Print | Product List | Glossary On
Versions: 1 2 3 4 5 6 7 8 9 10 11 12 13 14 15 16 17 18 19 20 21
000
FTUS41 KAKQ 180319 AAA
TAFSBY
TAF AMD
KSBY 180319Z 1803/1824 17003KT P6SM BKN110
     FM180400 VRB05KT 4SM -SHRA BKN060
     FM180500 00000KT 2SM BR BKN250
     FM180800 01003KT 4SM BR SCT003 SCT050
     FM181400 03008KT P6SM SCT250
     FM182000 31006KT P6SM SKC=

USA.gov is the U.S. government's official web portal to all federal, state and local government web resources and services.